Time;durP1;ratioP1;P1;durP2;ratioP2;P2;SDS_P1;SDS_P2;PMS_P1;PMS_P2;Temp;Humidity;BMP_temperature;BMP_pressure;BME280_temperature;BME280_humidity;BME280_pressure;Samples;Min_cycle;Max_cycle;Signal;HPM_P1;HPM_P2
2024/01/13 00:00:04;;;;;;;19.85;15.93;;;;;;;2.33;76.59;101386.75;10408527;28;20052;-59
2024/01/13 00:05:06;;;;;;;;;;;;;;;2.35;76.64;101380.56;10408378;28;20057;-58
2024/01/13 00:10:10;;;;;;;19.45;15.77;;;;;;;2.37;76.47;101365.63;10408456;28;19992;-60
2024/01/13 00:15:12;;;;;;;20.23;16.13;;;;;;;2.34;76.74;101343.81;10390297;28;20049;-60
2024/01/13 00:20:13;;;;;;;20.15;16.83;;;;;;;2.42;76.41;101355.00;10408112;28;20618;-58
2024/01/13 00:25:17;;;;;;;20.48;15.98;;;;;;;2.33;76.84;101339.47;10406160;28;21246;-58
2024/01/13 00:30:19;;;;;;;21.70;16.00;;;;;;;2.32;76.82;101333.34;10406132;28;20110;-60
2024/01/13 00:35:20;;;;;;;19.52;15.55;;;;;;;2.27;77.17;101322.13;10401590;28;20754;-59
2024/01/13 00:40:22;;;;;;;21.58;16.15;;;;;;;2.38;76.76;101327.06;10405356;28;20056;-60
2024/01/13 00:45:23;;;;;;;18.95;14.75;;;;;;;2.43;77.11;101319.91;10406059;28;20207;-58
2024/01/13 00:50:25;;;;;;;20.67;16.52;;;;;;;2.38;76.73;101321.81;10403130;28;20048;-59
2024/01/13 00:55:26;;;;;;;21.55;16.33;;;;;;;2.30;77.16;101311.53;10405584;28;20554;-58
2024/01/13 01:00:28;;;;;;;21.23;17.17;;;;;;;2.32;76.80;101301.81;10402174;28;20164;-59
2024/01/13 01:05:29;;;;;;;22.30;17.42;;;;;;;2.18;77.47;101306.59;10405975;28;20044;-59
2024/01/13 01:10:30;;;;;;;22.27;17.10;;;;;;;2.19;77.70;101308.34;10404370;28;20154;-59
2024/01/13 01:15:32;;;;;;;26.33;19.92;;;;;;;2.22;77.57;101300.38;10411200;28;20131;-58
2024/01/13 01:20:35;;;;;;;27.38;19.35;;;;;;;2.17;77.77;101297.03;10403428;28;20062;-59
2024/01/13 01:25:36;;;;;;;25.45;19.83;;;;;;;2.09;77.99;101294.63;10401313;28;20053;-59
2024/01/13 01:30:38;;;;;;;27.60;20.92;;;;;;;2.11;78.07;101283.16;10379438;28;20049;-59
2024/01/13 01:35:39;;;;;;;25.33;19.75;;;;;;;2.13;78.30;101285.72;10413968;28;20044;-57
2024/01/13 01:40:43;;;;;;;24.67;19.52;;;;;;;2.02;78.68;101280.78;10379382;28;20749;-58
2024/01/13 01:45:50;;;;;;;26.40;19.08;;;;;;;2.02;78.65;101283.41;10410448;28;20049;-58
2024/01/13 01:50:53;;;;;;;24.92;19.77;;;;;;;1.96;79.47;101280.13;10406356;28;20052;-59
2024/01/13 01:55:54;;;;;;;25.63;18.35;;;;;;;2.08;78.88;101280.63;10375557;28;20080;-58
2024/01/13 02:00:56;;;;;;;26.92;20.17;;;;;;;2.05;78.71;101267.56;10403813;28;20048;-60
2024/01/13 02:06:02;;;;;;;27.70;18.80;;;;;;;1.96;78.95;101267.00;10398614;28;20124;-58
2024/01/13 02:11:04;;;;;;;23.03;18.00;;;;;;;2.03;78.82;101264.13;10404546;28;20044;-58
2024/01/13 02:16:07;;;;;;;27.25;19.95;;;;;;;1.96;79.28;101273.09;10394241;28;20166;-60
2024/01/13 02:21:10;;;;;;;26.67;20.42;;;;;;;2.00;79.39;101263.34;10389257;28;20123;-58
2024/01/13 02:26:14;;;;;;;24.95;19.00;;;;;;;1.90;79.71;101249.63;10402736;28;20618;-58
2024/01/13 02:31:16;;;;;;;25.45;19.73;;;;;;;1.83;79.52;101221.81;10405189;28;21310;-60
2024/01/13 02:36:23;;;;;;;27.52;20.48;;;;;;;1.84;80.12;101242.78;10401081;28;20051;-58
2024/01/13 02:41:26;;;;;;;28.63;21.00;;;;;;;1.75;80.24;101233.41;10389334;28;20493;-59
2024/01/13 02:46:27;;;;;;;24.55;19.20;;;;;;;1.81;80.63;101234.16;10399016;28;20148;-60
2024/01/13 02:51:29;;;;;;;25.95;18.35;;;;;;;1.89;80.71;101238.28;10404352;28;20743;-60
2024/01/13 02:56:31;;;;;;;27.90;21.25;;;;;;;1.92;79.66;101235.56;10412137;28;20045;-60
2024/01/13 03:01:33;;;;;;;28.77;21.15;;;;;;;1.89;79.78;101224.28;10409036;28;20037;-59
2024/01/13 03:06:35;;;;;;;27.90;20.08;;;;;;;1.97;79.62;101234.53;10410180;28;20147;-59
2024/01/13 03:11:37;;;;;;;28.30;19.35;;;;;;;2.01;79.45;101223.94;10398034;28;20053;-58
2024/01/13 03:16:39;;;;;;;27.48;20.98;;;;;;;1.95;79.39;101229.34;10407425;28;20052;-59
2024/01/13 03:21:40;;;;;;;27.00;21.73;;;;;;;1.97;79.45;101221.41;10407712;28;20541;-59
2024/01/13 03:26:42;;;;;;;29.88;20.52;;;;;;;2.04;79.47;101226.47;10411985;28;20053;-57
2024/01/13 03:31:43;;;;;;;27.80;22.25;;;;;;;1.99;79.56;101217.84;10407536;28;20059;-59
2024/01/13 03:36:46;;;;;;;29.95;21.70;;;;;;;2.01;79.26;101200.31;10406795;28;20068;-59
2024/01/13 03:41:49;;;;;;;28.27;21.45;;;;;;;1.99;79.55;101199.47;10406493;28;20055;-59
2024/01/13 03:46:51;;;;;;;29.88;21.77;;;;;;;1.85;79.99;101202.50;10407753;28;20060;-59
2024/01/13 03:51:53;;;;;;;28.48;21.45;;;;;;;1.88;80.10;101189.28;10406891;28;20076;-57
2024/01/13 03:56:54;;;;;;;26.35;20.48;;;;;;;1.89;80.05;101187.50;10408193;28;20048;-59
2024/01/13 04:01:56;;;;;;;29.45;21.50;;;;;;;1.87;80.32;101184.09;10407698;28;20156;-57
2024/01/13 04:06:58;;;;;;;32.58;22.45;;;;;;;1.77;80.11;101176.47;10412930;28;20053;-58
2024/01/13 04:12:00;;;;;;;32.03;24.90;;;;;;;1.69;80.69;101173.19;10401610;28;20057;-58
2024/01/13 04:17:01;;;;;;;29.05;21.50;;;;;;;1.66;80.95;101162.78;10405391;28;20055;-59
2024/01/13 04:22:03;;;;;;;31.67;22.20;;;;;;;1.72;81.02;101167.00;10407968;28;20053;-59
2024/01/13 04:27:05;;;;;;;30.08;21.50;;;;;;;1.65;80.60;101137.47;10404637;28;20056;-59
2024/01/13 04:32:06;;;;;;;31.25;21.67;;;;;;;1.75;80.88;101154.63;10410975;28;20579;-58
2024/01/13 04:37:08;;;;;;;32.00;23.95;;;;;;;1.72;81.20;101149.47;10403895;28;20071;-60
2024/01/13 04:42:09;;;;;;;30.70;21.95;;;;;;;1.83;80.85;101140.44;10405167;28;20065;-60
2024/01/13 04:47:10;;;;;;;32.63;24.33;;;;;;;1.71;80.77;101124.16;10409505;28;20667;-59
2024/01/13 04:52:12;;;;;;;33.60;24.60;;;;;;;1.67;80.84;101125.16;10423895;28;20060;-59
2024/01/13 04:57:16;;;;;;;26.42;21.33;;;;;;;1.74;81.16;101134.56;10406738;28;20145;-59
2024/01/13 05:02:17;;;;;;;29.23;21.48;;;;;;;1.65;80.90;101126.97;10395182;28;20199;-59
2024/01/13 05:07:20;;;;;;;29.83;22.65;;;;;;;1.62;81.03;101132.28;10410672;28;20184;-64
2024/01/13 05:12:22;;;;;;;28.80;21.98;;;;;;;1.58;81.56;101126.28;10406832;28;20049;-60
2024/01/13 05:17:23;;;;;;;28.65;22.60;;;;;;;1.58;81.52;101120.16;10406180;28;20438;-61
2024/01/13 05:22:25;;;;;;;27.13;20.98;;;;;;;1.67;81.18;101119.91;10401736;28;20055;-59
2024/01/13 05:27:27;;;;;;;29.38;22.98;;;;;;;1.58;81.52;101099.19;10405637;28;20056;-57
2024/01/13 05:32:28;;;;;;;29.02;21.38;;;;;;;1.53;81.95;101095.81;10403717;28;20057;-58
2024/01/13 05:37:30;;;;;;;30.20;23.08;;;;;;;1.29;82.61;101079.91;10418196;28;20651;-58
2024/01/13 05:42:33;;;;;;;31.65;22.98;;;;;;;1.46;82.28;101089.91;10406875;28;20060;-60
2024/01/13 05:47:34;;;;;;;28.63;23.33;;;;;;;1.48;82.35;101097.72;10407696;28;20677;-58
2024/01/13 05:52:36;;;;;;;33.22;23.55;;;;;;;1.54;82.57;101076.53;10406181;28;20132;-61
2024/01/13 05:57:37;;;;;;;34.05;23.65;;;;;;;1.61;82.07;101067.59;10423191;28;20057;-61
2024/01/13 06:02:39;;;;;;;31.23;23.80;;;;;;;1.60;81.99;101076.34;10394685;28;20049;-58
2024/01/13 06:07:43;;;;;;;30.98;23.00;;;;;;;1.62;81.60;101064.03;10393917;28;20578;-60
2024/01/13 06:12:45;;;;;;;25.17;21.20;;;;;;;1.67;81.78;101066.56;10391472;28;20815;-60
2024/01/13 06:17:47;;;;;;;34.65;23.92;;;;;;;1.51;82.28;101066.16;10419512;28;20056;-58
2024/01/13 06:22:49;;;;;;;30.13;22.60;;;;;;;1.49;83.04;101057.47;10402772;28;20045;-60
2024/01/13 06:27:50;;;;;;;31.40;23.17;;;;;;;1.57;82.27;101058.09;10401132;28;20062;-60
2024/01/13 06:32:51;;;;;;;31.52;23.95;;;;;;;1.61;82.36;101051.84;10418344;28;20198;-61
2024/01/13 06:37:53;;;;;;;32.15;24.23;;;;;;;1.70;81.74;101043.69;10411346;28;20053;-59
2024/01/13 06:42:54;;;;;;;32.33;21.88;;;;;;;1.63;81.83;101036.91;10410674;28;20554;-60
2024/01/13 06:47:56;;;;;;;33.47;24.95;;;;;;;1.63;82.15;101039.53;10406697;28;20080;-59
2024/01/13 06:53:00;;;;;;;31.13;23.23;;;;;;;1.63;82.17;101043.94;10406209;28;20041;-61
2024/01/13 06:58:01;;;;;;;32.95;23.38;;;;;;;1.65;82.42;101047.34;10414085;28;20133;-60
2024/01/13 07:03:03;;;;;;;32.33;23.08;;;;;;;1.47;82.85;101039.16;10410123;28;20049;-59
2024/01/13 07:08:06;;;;;;;32.45;23.02;;;;;;;1.59;82.58;101037.88;10409155;28;20048;-61
2024/01/13 07:13:08;;;;;;;31.85;22.35;;;;;;;1.67;82.18;101033.28;10420659;28;20158;-58
2024/01/13 07:18:09;;;;;;;30.48;22.52;;;;;;;1.65;82.03;101042.09;10414431;28;20345;-62
2024/01/13 07:23:12;;;;;;;30.58;20.80;;;;;;;1.60;82.43;101044.88;10408820;28;20053;-60
2024/01/13 07:28:13;;;;;;;31.45;22.35;;;;;;;1.64;82.78;101043.88;10377000;28;20056;-61
2024/01/13 07:33:15;;;;;;;31.33;22.10;;;;;;;1.57;82.94;101040.56;10388034;28;20061;-60
2024/01/13 07:38:16;;;;;;;32.70;23.50;;;;;;;1.64;82.75;101041.25;10411793;28;20430;-60
2024/01/13 07:43:18;;;;;;;30.40;21.30;;;;;;;1.74;82.80;101037.44;10400651;28;20067;-59
2024/01/13 07:48:20;;;;;;;26.95;20.05;;;;;;;1.54;82.33;100997.81;10413617;28;20052;-59
2024/01/13 07:53:22;;;;;;;31.85;22.35;;;;;;;1.79;81.97;101049.53;10386209;28;20053;-60
2024/01/13 07:58:24;;;;;;;30.45;22.02;;;;;;;1.87;82.23;101037.03;10402022;28;20555;-60
2024/01/13 08:03:25;;;;;;;27.05;20.50;;;;;;;1.95;81.75;101021.88;10403628;28;20049;-60
2024/01/13 08:08:30;;;;;;;27.33;21.63;;;;;;;1.94;81.35;101012.31;10396816;28;20207;-58
2024/01/13 08:13:31;;;;;;;27.52;20.75;;;;;;;1.96;81.73;101015.75;10401829;28;20109;-58
2024/01/13 08:18:32;;;;;;;29.48;21.38;;;;;;;1.92;81.51;101000.97;10399334;28;20858;-59
2024/01/13 08:23:34;;;;;;;28.17;21.30;;;;;;;1.91;81.62;101005.38;10396006;28;20112;-60
2024/01/13 08:28:35;;;;;;;28.35;19.38;;;;;;;2.02;81.69;101022.56;10411898;28;20037;-56
2024/01/13 08:33:38;;;;;;;24.98;18.63;;;;;;;2.01;81.06;101019.09;10382380;28;20060;-59
2024/01/13 08:38:43;;;;;;;25.33;18.98;;;;;;;2.03;80.89;101014.63;10389055;22;20049;-57
2024/01/13 08:43:44;;;;;;;;;;;;;;;1.92;80.97;101008.84;10355410;28;20049;-60
2024/01/13 08:48:49;;;;;;;26.42;20.30;;;;;;;1.90;81.47;101006.28;10382096;28;20592;-60
2024/01/13 08:53:51;;;;;;;27.30;20.70;;;;;;;1.95;81.71;101003.50;10382132;28;20088;-60
2024/01/13 08:58:52;;;;;;;29.48;21.55;;;;;;;1.93;81.13;100987.81;10370411;28;20057;-58
2024/01/13 09:03:53;;;;;;;28.40;21.08;;;;;;;1.93;81.35;100992.22;10383287;28;20053;-59
2024/01/13 09:08:55;;;;;;;27.42;20.52;;;;;;;1.72;81.18;100963.09;10390178;28;20049;-58
2024/01/13 09:13:56;;;;;;;27.80;20.13;;;;;;;1.71;82.39;100971.91;10389151;28;20159;-59
2024/01/13 09:18:58;;;;;;;31.95;21.55;;;;;;;1.69;82.74;100981.59;10376334;28;20502;-61
2024/01/13 09:24:00;;;;;;;26.98;19.58;;;;;;;1.71;82.90;100982.41;10391715;28;20122;-62
2024/01/13 09:29:02;;;;;;;29.77;20.38;;;;;;;1.73;81.95;100977.97;10388876;28;20054;-59
2024/01/13 09:34:04;;;;;;;26.90;20.17;;;;;;;1.76;82.56;100988.38;10390033;28;20605;-58
2024/01/13 09:39:10;;;;;;;29.52;20.90;;;;;;;1.77;82.44;100937.59;10385336;28;20071;-59
2024/01/13 09:44:21;;;;;;;28.52;19.88;;;;;;;1.66;82.50;100918.69;10388966;28;20134;-59
2024/01/13 09:49:26;;;;;;;28.05;20.13;;;;;;;1.64;82.62;100910.03;10387337;28;20152;-58
2024/01/13 09:54:29;;;;;;;26.60;19.67;;;;;;;1.74;82.61;100953.44;10353341;28;20151;-62
2024/01/13 09:59:31;;;;;;;26.88;18.90;;;;;;;1.74;82.52;100974.44;10376700;28;20069;-61
2024/01/13 10:04:37;;;;;;;24.63;17.83;;;;;;;1.63;81.81;100929.28;10382279;28;20077;-60
2024/01/13 10:09:40;;;;;;;25.98;19.80;;;;;;;1.81;82.17;100958.47;10351833;28;20406;-62
2024/01/13 10:14:42;;;;;;;25.13;18.50;;;;;;;1.85;82.09;100931.22;10392328;28;20148;-59
2024/01/13 10:19:45;;;;;;;24.13;17.20;;;;;;;1.87;81.82;100927.63;10388603;28;20052;-60
2024/01/13 10:24:48;;;;;;;25.10;17.73;;;;;;;1.81;81.70;100896.31;10370953;28;20057;-59
2024/01/13 10:29:50;;;;;;;28.75;19.40;;;;;;;1.83;81.79;100896.28;10392946;28;20525;-61
2024/01/13 10:34:53;;;;;;;23.17;16.88;;;;;;;1.84;82.11;100900.63;10375520;28;20060;-62
2024/01/13 10:39:56;;;;;;;24.13;17.20;;;;;;;1.83;81.82;100868.28;10390909;28;20106;-61
2024/01/13 10:45:01;;;;;;;23.42;17.75;;;;;;;1.77;81.30;100848.34;10396097;28;20045;-60
2024/01/13 10:50:03;;;;;;;23.67;16.85;;;;;;;1.70;81.43;100815.31;10391662;28;20061;-59
2024/01/13 10:55:06;;;;;;;24.70;18.75;;;;;;;1.74;82.08;100814.31;10376883;28;20104;-61
2024/01/13 11:00:10;;;;;;;24.33;17.50;;;;;;;1.80;82.10;100841.25;10343608;28;20614;-59
2024/01/13 11:05:14;;;;;;;20.67;15.47;;;;;;;1.76;82.14;100845.75;10369756;28;20052;-61
2024/01/13 11:10:30;;;;;;;21.15;15.43;;;;;;;1.95;81.42;100874.84;10387910;28;20049;-61
2024/01/13 11:15:49;;;;;;;20.40;15.75;;;;;;;1.94;81.28;100845.09;10371879;28;20056;-61
2024/01/13 11:21:08;;;;;;;18.20;14.52;;;;;;;2.07;80.08;100840.28;10392534;28;20061;-62
2024/01/13 11:26:10;;;;;;;18.63;14.25;;;;;;;2.17;79.94;100884.63;10392996;28;20053;-61
2024/01/13 11:31:41;;;;;;;18.60;14.18;;;;;;;2.30;79.41;100860.47;10372716;28;20099;-62
2024/01/13 11:36:50;;;;;;;15.10;12.70;;;;;;;2.34;79.24;100841.97;10392569;28;20060;-61
2024/01/13 11:41:55;;;;;;;;;;;;;;;2.34;79.28;100827.03;10391210;28;20302;-59
2024/01/13 11:47:00;;;;;;;19.25;15.27;;;;;;;2.37;79.03;100821.69;10391988;28;19929;-60
2024/01/13 11:52:07;;;;;;;19.37;16.10;;;;;;;2.35;78.60;100812.16;10369584;28;20053;-62
2024/01/13 11:57:09;;;;;;;20.35;14.07;;;;;;;2.28;78.74;100801.88;10391667;28;20104;-60
2024/01/13 12:02:11;;;;;;;18.58;14.55;;;;;;;2.31;79.11;100800.88;10390764;28;20884;-59
2024/01/13 12:07:13;;;;;;;13.07;11.25;;;;;;;2.39;78.16;100809.34;10389467;28;20637;-61
2024/01/13 12:12:17;;;;;;;13.15;10.38;;;;;;;2.43;77.21;100791.69;10393146;28;20052;-61
2024/01/13 12:17:19;;;;;;;9.40;7.00;;;;;;;2.50;76.07;100801.06;10394600;28;20134;-61
2024/01/13 12:22:20;;;;;;;10.13;8.35;;;;;;;2.46;75.28;100800.31;10369943;28;20060;-62
2024/01/13 12:27:22;;;;;;;10.65;7.75;;;;;;;2.35;75.21;100781.47;10389971;28;20049;-61
2024/01/13 12:32:29;;;;;;;8.23;7.40;;;;;;;2.41;74.71;100773.34;10392604;28;20057;-62
2024/01/13 12:37:31;;;;;;;12.45;8.40;;;;;;;2.41;74.29;100760.22;10393103;28;20056;-62
2024/01/13 12:42:32;;;;;;;10.93;8.70;;;;;;;2.35;73.78;100747.31;10364951;28;20049;-63
2024/01/13 12:47:36;;;;;;;9.82;8.02;;;;;;;2.39;72.88;100766.47;10393286;28;20057;-62
2024/01/13 12:52:38;;;;;;;10.50;8.48;;;;;;;2.32;73.89;100739.56;10397063;28;20055;-62
2024/01/13 12:57:40;;;;;;;8.85;7.93;;;;;;;2.30;73.86;100704.63;10396079;28;20056;-62
2024/01/13 13:02:43;;;;;;;11.32;7.93;;;;;;;2.35;73.18;100701.81;10394760;28;20061;-61
2024/01/13 13:07:45;;;;;;;9.25;8.05;;;;;;;2.15;73.25;100684.16;10399948;28;20053;-61
2024/01/13 13:12:49;;;;;;;9.63;8.45;;;;;;;2.36;72.70;100683.34;10395690;28;20061;-60
2024/01/13 13:17:51;;;;;;;10.02;8.38;;;;;;;2.50;73.46;100695.09;10373354;28;20212;-65
2024/01/13 13:22:54;;;;;;;9.15;8.00;;;;;;;2.63;73.54;100697.16;10399148;28;20064;-62
2024/01/13 13:27:55;;;;;;;12.50;9.18;;;;;;;2.54;71.74;100696.66;10394927;28;20068;-62
2024/01/13 13:32:57;;;;;;;11.60;8.95;;;;;;;2.62;72.25;100711.22;10391850;28;20115;-64
2024/01/13 13:37:58;;;;;;;13.52;9.85;;;;;;;2.65;71.79;100692.69;10383828;28;20050;-63
2024/01/13 13:43:00;;;;;;;10.32;9.23;;;;;;;2.70;71.64;100687.22;10332283;28;20068;-63
2024/01/13 13:48:01;;;;;;;11.40;8.77;;;;;;;2.52;72.28;100670.44;10360709;28;20050;-63
2024/01/13 13:53:05;;;;;;;12.93;9.60;;;;;;;2.43;73.73;100682.19;10356346;28;20050;-63
2024/01/13 13:58:07;;;;;;;11.50;9.35;;;;;;;2.54;73.86;100676.50;10360384;28;20075;-63
2024/01/13 14:03:09;;;;;;;13.05;9.75;;;;;;;2.53;73.15;100672.16;10358938;28;20049;-62
2024/01/13 14:08:12;;;;;;;13.05;9.48;;;;;;;2.57;73.06;100671.13;10361431;28;20060;-61
2024/01/13 14:13:14;;;;;;;13.07;10.40;;;;;;;2.52;72.87;100648.56;10366026;28;20406;-62
2024/01/13 14:18:15;;;;;;;14.52;10.98;;;;;;;2.38;72.78;100642.09;10355729;28;20053;-63
2024/01/13 14:23:18;;;;;;;14.13;9.90;;;;;;;2.40;73.11;100636.78;10331653;28;20071;-62
2024/01/13 14:28:19;;;;;;;13.07;10.55;;;;;;;2.44;73.04;100649.72;10361515;28;20049;-61
2024/01/13 14:33:21;;;;;;;14.15;10.40;;;;;;;2.47;72.65;100641.72;10333498;28;20110;-63
2024/01/13 14:38:23;;;;;;;13.70;10.27;;;;;;;2.39;72.18;100628.06;10339864;28;20049;-61
2024/01/13 14:43:24;;;;;;;13.40;8.48;;;;;;;2.54;72.17;100655.47;10373243;28;20052;-59
2024/01/13 14:48:27;;;;;;;11.73;9.02;;;;;;;2.39;71.57;100645.59;10385675;28;20052;-62
2024/01/13 14:53:31;;;;;;;;;;;;;;;2.41;71.94;100634.09;10382449;28;20747;-60
2024/01/13 14:58:32;;;;;;;10.18;8.55;;;;;;;2.38;71.77;100621.06;10387272;28;20836;-62
2024/01/13 15:03:33;;;;;;;15.73;10.32;;;;;;;2.30;72.29;100621.38;10393323;28;20060;-59
2024/01/13 15:08:35;;;;;;;11.05;8.48;;;;;;;2.40;71.67;100619.25;10373183;28;20060;-62
2024/01/13 15:13:37;;;;;;;12.13;8.32;;;;;;;2.42;72.35;100612.16;10397952;28;20058;-63
2024/01/13 15:18:38;;;;;;;13.77;9.38;;;;;;;2.30;73.05;100628.44;10396251;28;20064;-61
2024/01/13 15:23:44;;;;;;;12.98;9.85;;;;;;;2.26;73.37;100613.69;10396946;28;20061;-63
2024/01/13 15:28:46;;;;;;;17.77;14.13;;;;;;;2.28;73.82;100611.84;10382933;28;20486;-62
2024/01/13 15:33:48;;;;;;;15.07;10.82;;;;;;;2.09;74.64;100596.84;10399406;28;20443;-61
2024/01/13 15:38:50;;;;;;;13.48;9.80;;;;;;;2.00;74.89;100589.34;10397340;28;20466;-61
2024/01/13 15:43:52;;;;;;;12.60;9.25;;;;;;;2.02;74.82;100592.75;10398612;28;20057;-63
2024/01/13 15:48:53;;;;;;;11.00;8.48;;;;;;;2.01;74.60;100593.69;10376398;28;20167;-63
2024/01/13 15:53:55;;;;;;;10.88;8.63;;;;;;;2.07;74.31;100590.81;10398437;28;20099;-63
2024/01/13 15:58:56;;;;;;;11.70;8.93;;;;;;;2.09;74.60;100590.75;10398259;28;20048;-63
2024/01/13 16:03:58;;;;;;;12.40;10.57;;;;;;;2.11;74.49;100584.50;10377006;28;20055;-61
2024/01/13 16:08:59;;;;;;;12.75;9.50;;;;;;;1.98;74.58;100585.88;10384858;28;20089;-61
2024/01/13 16:14:01;;;;;;;12.85;10.38;;;;;;;2.05;75.02;100579.47;10377204;28;20081;-62
2024/01/13 16:19:03;;;;;;;11.82;9.10;;;;;;;1.96;75.20;100569.34;10392627;28;20117;-61
2024/01/13 16:24:08;;;;;;;14.38;9.45;;;;;;;2.02;74.74;100563.84;10377632;28;20052;-62
2024/01/13 16:29:11;;;;;;;13.93;10.65;;;;;;;2.03;74.64;100548.97;10395579;28;20190;-62
2024/01/13 16:34:13;;;;;;;13.27;10.05;;;;;;;2.19;75.28;100562.31;10389272;28;20049;-62
2024/01/13 16:39:15;;;;;;;15.60;10.45;;;;;;;2.28;74.54;100554.06;10360145;28;20802;-63
2024/01/13 16:44:16;;;;;;;12.82;9.50;;;;;;;2.09;75.09;100553.97;10382348;28;20056;-61
2024/01/13 16:49:19;;;;;;;11.77;8.65;;;;;;;2.09;75.04;100543.47;10396268;28;20063;-62
2024/01/13 16:54:21;;;;;;;12.68;8.98;;;;;;;2.31;74.32;100561.81;10394470;28;20124;-61
2024/01/13 16:59:23;;;;;;;14.20;10.20;;;;;;;2.10;74.71;100553.91;10377440;28;20049;-63
2024/01/13 17:04:26;;;;;;;12.10;9.27;;;;;;;2.14;74.93;100557.25;10363711;28;20063;-61
2024/01/13 17:09:28;;;;;;;13.07;9.77;;;;;;;2.24;74.85;100542.84;10370353;28;20094;-62
2024/01/13 17:14:29;;;;;;;13.63;11.18;;;;;;;2.18;75.70;100532.59;10378624;28;20239;-61
2024/01/13 17:19:31;;;;;;;12.65;10.20;;;;;;;2.12;75.29;100530.22;10394071;28;20049;-61
2024/01/13 17:24:33;;;;;;;13.77;10.70;;;;;;;2.24;75.65;100531.47;10392701;28;20498;-64
2024/01/13 17:29:35;;;;;;;12.80;10.23;;;;;;;2.19;75.99;100533.44;10367804;28;20541;-62
2024/01/13 17:34:36;;;;;;;16.35;11.10;;;;;;;2.29;75.32;100540.00;10390931;28;20055;-63
2024/01/13 17:39:38;;;;;;;16.80;11.93;;;;;;;2.19;75.52;100549.19;10393040;28;20447;-63
2024/01/13 17:44:39;;;;;;;20.48;11.95;;;;;;;2.20;74.91;100562.25;10398495;28;21025;-63
2024/01/13 17:49:41;;;;;;;14.80;11.30;;;;;;;2.09;75.38;100527.72;10393953;28;20205;-62
2024/01/13 17:54:42;;;;;;;19.83;14.75;;;;;;;2.16;75.14;100544.06;10395033;28;20542;-62
2024/01/13 17:59:47;;;;;;;14.93;10.85;;;;;;;1.97;74.79;100518.56;10389917;28;20122;-59
2024/01/13 18:04:49;;;;;;;17.73;12.77;;;;;;;2.22;75.09;100538.56;10361869;28;20057;-62
2024/01/13 18:09:51;;;;;;;14.00;10.90;;;;;;;2.28;74.45;100541.78;10395775;28;20103;-63
2024/01/13 18:14:53;;;;;;;15.85;11.45;;;;;;;2.27;74.26;100540.06;10391415;28;20061;-61
2024/01/13 18:19:55;;;;;;;13.07;10.48;;;;;;;2.23;74.10;100551.63;10364046;28;20053;-62
2024/01/13 18:24:57;;;;;;;14.35;11.52;;;;;;;2.27;73.75;100544.50;10395740;28;20184;-61
2024/01/13 18:29:59;;;;;;;14.82;10.95;;;;;;;2.13;73.79;100550.28;10401010;28;20584;-63
2024/01/13 18:35:04;;;;;;;14.40;10.27;;;;;;;2.06;74.07;100541.81;10401025;28;20052;-63
2024/01/13 18:40:10;;;;;;;17.02;11.80;;;;;;;2.11;74.13;100533.75;10391587;28;20075;-63
2024/01/13 18:45:11;;;;;;;16.88;11.70;;;;;;;2.15;73.84;100531.84;10383610;28;20106;-63
2024/01/13 18:50:14;;;;;;;14.20;10.85;;;;;;;2.21;74.09;100515.84;10400531;28;20060;-61
2024/01/13 18:55:15;;;;;;;17.73;11.60;;;;;;;2.06;73.54;100476.16;10374396;28;20477;-63
2024/01/13 19:00:19;;;;;;;16.75;11.95;;;;;;;2.25;73.96;100499.91;10398570;28;20076;-63
2024/01/13 19:05:22;;;;;;;15.85;12.60;;;;;;;2.09;74.02;100489.16;10394442;28;20133;-63
2024/01/13 19:10:23;;;;;;;16.92;11.40;;;;;;;2.16;73.49;100508.13;10370064;28;20633;-63
2024/01/13 19:15:26;;;;;;;15.02;11.23;;;;;;;2.20;73.07;100503.63;10395662;28;20059;-63
2024/01/13 19:20:28;;;;;;;15.82;12.50;;;;;;;2.17;73.15;100493.25;10396676;28;20052;-63
2024/01/13 19:25:29;;;;;;;15.00;11.82;;;;;;;2.17;72.88;100488.00;10381394;28;20126;-62
2024/01/13 19:30:30;;;;;;;17.85;13.82;;;;;;;2.06;73.29;100491.06;10378300;28;20049;-62
2024/01/13 19:35:32;;;;;;;15.85;11.60;;;;;;;2.05;72.78;100494.59;10391880;28;20135;-63
2024/01/13 19:40:34;;;;;;;18.02;13.00;;;;;;;2.12;73.06;100470.66;10400064;28;20080;-62
2024/01/13 19:45:39;;;;;;;15.88;12.05;;;;;;;2.14;72.66;100462.72;10396741;28;20041;-63
2024/01/13 19:50:42;;;;;;;19.45;13.48;;;;;;;2.10;71.94;100462.00;10378199;28;20049;-62
2024/01/13 19:55:43;;;;;;;18.88;14.30;;;;;;;1.94;73.09;100450.41;10343446;28;20053;-59
2024/01/13 20:00:45;;;;;;;19.10;12.75;;;;;;;1.79;72.84;100422.16;10395473;28;20815;-61
2024/01/13 20:05:47;;;;;;;20.77;14.27;;;;;;;1.82;72.78;100449.16;10373420;28;20056;-63
2024/01/13 20:10:48;;;;;;;16.85;12.38;;;;;;;1.91;73.48;100440.91;10397055;28;20120;-63
2024/01/13 20:15:50;;;;;;;19.58;14.68;;;;;;;1.90;72.69;100444.44;10394755;28;20169;-63
2024/01/13 20:20:52;;;;;;;18.38;13.52;;;;;;;1.81;72.91;100429.06;10382414;28;21189;-63
2024/01/13 20:25:57;;;;;;;16.50;12.63;;;;;;;1.85;72.79;100424.56;10376571;28;20517;-61
2024/01/13 20:30:59;;;;;;;20.98;14.38;;;;;;;1.54;72.90;100389.91;10378222;28;20057;-63
2024/01/13 20:36:01;;;;;;;17.33;14.43;;;;;;;1.67;73.03;100400.75;10381706;28;21425;-64
2024/01/13 20:41:04;;;;;;;18.65;13.68;;;;;;;1.73;72.96;100405.75;10387474;28;20170;-62
2024/01/13 20:46:09;;;;;;;19.05;14.15;;;;;;;1.77;72.95;100414.34;10395707;28;20048;-61
2024/01/13 20:51:12;;;;;;;;;;;;;;;1.61;72.24;100377.41;10383441;28;20111;-62
2024/01/13 20:56:15;;;;;;;18.88;14.15;;;;;;;1.90;72.09;100406.81;10362712;28;19924;-61
2024/01/13 21:01:16;;;;;;;17.13;12.90;;;;;;;1.84;72.12;100413.19;10390358;28;20049;-63
2024/01/13 21:06:18;;;;;;;16.85;13.05;;;;;;;1.88;72.02;100406.06;10376073;28;20048;-63
2024/01/13 21:11:21;;;;;;;18.63;14.05;;;;;;;1.88;71.75;100387.66;10375819;28;20566;-64
2024/01/13 21:16:24;;;;;;;18.08;12.80;;;;;;;1.88;71.80;100392.94;10359529;28;20077;-65
2024/01/13 21:21:26;;;;;;;18.95;13.90;;;;;;;1.85;71.74;100393.91;10374710;28;20058;-63
2024/01/13 21:26:28;;;;;;;16.20;12.70;;;;;;;1.82;71.44;100398.41;10356510;28;20143;-62
2024/01/13 21:31:29;;;;;;;17.85;12.90;;;;;;;1.94;71.97;100379.53;10374591;28;20396;-61
2024/01/13 21:36:31;;;;;;;17.90;13.38;;;;;;;2.02;71.33;100374.78;10365393;28;20053;-63
2024/01/13 21:41:33;;;;;;;18.55;13.75;;;;;;;2.07;70.42;100372.84;10397422;28;20322;-64
2024/01/13 21:46:36;;;;;;;17.98;13.65;;;;;;;2.11;70.77;100368.28;10355683;28;20135;-61
2024/01/13 21:51:37;;;;;;;16.67;13.35;;;;;;;1.99;70.16;100351.28;10388282;28;20188;-62
2024/01/13 21:56:39;;;;;;;17.17;12.55;;;;;;;1.91;70.71;100345.53;10370775;28;20098;-63
2024/01/13 22:01:40;;;;;;;16.90;12.32;;;;;;;1.83;70.69;100327.50;10392093;28;20155;-63
2024/01/13 22:06:42;;;;;;;16.92;12.02;;;;;;;1.84;70.82;100318.69;10369191;28;20723;-62
2024/01/13 22:11:45;;;;;;;18.63;13.85;;;;;;;1.71;71.19;100301.75;10347160;28;21774;-62
2024/01/13 22:16:46;;;;;;;17.85;14.20;;;;;;;1.89;70.92;100326.34;10355507;28;20111;-62
2024/01/13 22:21:48;;;;;;;19.00;13.18;;;;;;;1.81;71.55;100328.47;10366629;28;20155;-63
2024/01/13 22:26:49;;;;;;;18.98;14.02;;;;;;;1.83;71.19;100308.25;10389787;28;20132;-63
2024/01/13 22:31:51;;;;;;;17.00;13.13;;;;;;;1.90;71.22;100301.81;10394826;28;20418;-61
2024/01/13 22:36:52;;;;;;;18.90;13.60;;;;;;;1.86;71.21;100300.25;10389619;28;20053;-64
2024/01/13 22:41:54;;;;;;;18.05;13.13;;;;;;;1.90;71.23;100286.91;10389983;28;20175;-62
2024/01/13 22:46:56;;;;;;;17.63;12.95;;;;;;;1.80;71.08;100276.88;10391729;28;20241;-63
2024/01/13 22:51:58;;;;;;;16.73;12.90;;;;;;;1.63;71.43;100267.13;10391764;28;20057;-63
2024/01/13 22:57:00;;;;;;;16.42;12.95;;;;;;;1.53;72.24;100258.78;10391387;28;20148;-64